Terminal Aerodrome Forecast
Issued by NWS

Home | Current Version | Previous Version | Text Only | Print | Product List | Glossary Off
Versions: 1 2 3 4 5 6 7 8 9 10 11 12 13 14 15 16 17 18 19 20 21 22

000
FTUS43 KGRB 301506 AAB
TAFCWA
TAF AMD
KCWA 301506Z 3015/3112 22006KT P6SM SCT005 SCT015
      TEMPO 3016/3018 BKN005
     FM301800 21007KT P6SM BKN010
     FM302100 21007KT P6SM SCT015
     FM310100 19003KT P6SM SKC
     FM310700 21004KT 5SM BR BKN005=

USA.gov is the U.S. government's official web portal to all federal, state and local government web resources and services.